Aviation Digital Data Service (ADDS)

Output produced by METARs form (2346 UTC 02 September 2015)
found at http://aviationweather.gov/adds/metars/
 
KDTW 022338Z 0300/0406 29007KT P6SM SCT060 BKN200 
     FM030200 26005KT P6SM FEW060 SCT200 
     FM031000 26004KT 3SM BR SCT025 
     FM031400 30005KT P6SM SCT045 
     FM032100 24006KT P6SM SCT050 BKN100 
     FM040100 VRB03KT P6SM SCT100